Time;durP1;ratioP1;P1;durP2;ratioP2;P2;SDS_P1;SDS_P2;PMS_P1;PMS_P2;Temp;Humidity;BMP_temperature;BMP_pressure;BME280_temperature;BME280_humidity;BME280_pressure;Samples;Min_cycle;Max_cycle;Signal;HPM_P1;HPM_P2
2021/08/14 03:30:45;;;;;;;9.97;8.00;;;;;;;22.17;60.27;99282.50;8589052;22;20209;-80
2021/08/14 03:34:06;;;;;;;8.67;7.77;;;;;;;22.49;59.65;99304.38;8579840;23;20168;-79
2021/08/14 03:37:28;;;;;;;13.67;8.20;;;;;;;23.11;58.34;99318.81;8579513;23;20184;-78
2021/08/14 03:40:49;;;;;;;10.67;8.13;;;;;;;22.94;58.14;99319.06;8577311;23;20209;-78
2021/08/14 03:44:11;;;;;;;9.63;7.73;;;;;;;22.98;58.24;99316.59;8577318;23;20243;-79
2021/08/14 03:47:34;;;;;;;9.57;7.67;;;;;;;22.87;57.95;99324.00;8591706;23;20170;-78
2021/08/14 03:50:55;;;;;;;8.80;7.30;;;;;;;22.70;57.22;99286.81;8577016;23;20216;-78
2021/08/14 03:54:17;;;;;;;9.43;8.00;;;;;;;22.63;58.76;99313.75;8580220;23;20194;-78
2021/08/14 03:57:38;;;;;;;8.90;7.30;;;;;;;22.55;58.99;99315.09;8581224;23;20220;-77
2021/08/14 04:01:00;;;;;;;8.53;7.70;;;;;;;22.45;59.20;99314.25;8580170;23;20266;-78
2021/08/14 04:04:23;;;;;;;10.50;8.93;;;;;;;22.19;60.15;99318.75;8580756;23;20191;-78
2021/08/14 04:07:45;;;;;;;10.17;9.03;;;;;;;22.14;60.23;99306.94;8580830;23;20185;-78
2021/08/14 04:11:07;;;;;;;9.50;8.20;;;;;;;22.36;59.98;99329.56;8579374;23;20205;-78
2021/08/14 04:14:28;;;;;;;9.10;8.20;;;;;;;21.98;60.79;99322.50;8580057;23;20204;-77
2021/08/14 04:17:50;;;;;;;11.10;8.03;;;;;;;22.13;60.44;99319.84;8579557;23;20179;-78
2021/08/14 04:21:13;;;;;;;10.20;8.57;;;;;;;22.25;60.41;99322.38;8592061;23;20198;-78
2021/08/14 04:24:34;;;;;;;10.13;7.83;;;;;;;22.55;59.35;99308.78;8579630;23;20181;-78
2021/08/14 04:27:56;;;;;;;8.30;7.50;;;;;;;22.65;58.60;99325.31;8579184;23;20186;-78
2021/08/14 04:31:18;;;;;;;9.03;8.13;;;;;;;22.77;58.35;99321.22;8604693;23;20204;-77
2021/08/14 04:34:39;;;;;;;9.13;8.20;;;;;;;22.63;58.25;99327.50;8621459;23;20188;-78
2021/08/14 04:38:02;;;;;;;8.80;7.73;;;;;;;22.47;59.33;99320.28;8635129;23;20634;-79
2021/08/14 04:41:24;;;;;;;8.90;7.87;;;;;;;22.14;60.55;99329.72;8621285;22;20203;-78
2021/08/14 04:44:45;;;;;;;11.60;8.63;;;;;;;22.27;59.83;99323.78;8635141;23;20176;-77
2021/08/14 04:48:07;;;;;;;9.43;8.43;;;;;;;22.22;60.48;99314.66;8620301;23;20184;-77
2021/08/14 04:51:29;;;;;;;11.73;8.70;;;;;;;22.50;60.32;99308.75;8634676;22;20209;-78
2021/08/14 04:54:52;;;;;;;9.93;8.63;;;;;;;22.04;61.24;99326.09;8621034;23;20242;-77
2021/08/14 04:58:13;;;;;;;9.57;8.30;;;;;;;22.27;60.47;99321.03;8620374;23;20180;-78
2021/08/14 05:01:35;;;;;;;11.43;8.40;;;;;;;22.54;59.87;99320.88;8620613;22;20206;-78
2021/08/14 05:04:56;;;;;;;10.53;8.20;;;;;;;22.34;60.80;99321.59;8634642;23;20182;-78
2021/08/14 05:08:18;;;;;;;12.13;8.67;;;;;;;22.61;60.71;99325.00;8620548;23;20254;-78
2021/08/14 05:11:41;;;;;;;11.47;9.30;;;;;;;22.78;59.77;99322.88;8620777;22;20202;-78
2021/08/14 05:15:02;;;;;;;11.70;9.07;;;;;;;22.76;60.25;99319.56;8620510;23;20185;-81
2021/08/14 05:18:24;;;;;;;9.93;8.40;;;;;;;22.80;59.92;99328.94;8633711;22;20574;-80
2021/08/14 05:21:45;;;;;;;11.13;9.70;;;;;;;22.63;60.16;99331.09;8620140;22;20201;-77
2021/08/14 05:25:08;;;;;;;9.77;8.77;;;;;;;22.71;60.99;99340.75;8621072;23;20186;-79
2021/08/14 05:28:32;;;;;;;9.87;8.90;;;;;;;22.96;60.59;99327.84;8619818;23;20182;-78
2021/08/14 05:31:53;;;;;;;10.60;8.57;;;;;;;23.21;60.15;99332.59;8612200;22;20204;-78
2021/08/14 05:35:15;;;;;;;9.27;8.30;;;;;;;23.53;59.65;99330.41;8620840;23;20241;-78
2021/08/14 05:38:37;;;;;;;9.83;8.83;;;;;;;23.89;58.67;99343.09;8618961;23;20188;-78
2021/08/14 05:41:58;;;;;;;10.13;7.93;;;;;;;24.13;58.20;99342.19;8619954;22;20205;-79
2021/08/14 05:45:21;;;;;;;12.77;9.17;;;;;;;24.15;57.60;99309.69;8634028;22;20517;-78
2021/08/14 05:48:43;;;;;;;10.40;9.30;;;;;;;24.60;57.21;99339.03;8619610;23;20192;-78
2021/08/14 05:52:05;;;;;;;9.87;8.23;;;;;;;24.75;56.72;99338.94;8634176;22;20227;-79
2021/08/14 05:55:27;;;;;;;9.93;8.37;;;;;;;25.07;56.23;99339.34;8633687;23;20627;-79
2021/08/14 05:58:48;;;;;;;10.03;8.93;;;;;;;25.49;54.81;99332.13;8633461;23;20193;-77
2021/08/14 06:02:11;;;;;;;9.37;8.47;;;;;;;25.58;55.04;99324.88;8633498;22;20202;-80
2021/08/14 06:05:33;;;;;;;8.80;7.93;;;;;;;25.91;54.04;99339.81;8619689;23;20178;-78
2021/08/14 06:08:57;;;;;;;10.67;8.33;;;;;;;26.30;52.22;99324.72;8616683;23;20179;-79
2021/08/14 06:12:18;;;;;;;12.33;8.17;;;;;;;26.56;52.75;99341.88;8621294;22;20215;-78
2021/08/14 06:15:40;;;;;;;9.20;8.13;;;;;;;26.85;52.22;99335.09;8636300;23;20174;-78
2021/08/14 06:19:03;;;;;;;10.97;8.40;;;;;;;26.81;51.67;99330.47;8623441;23;20516;-80
2021/08/14 06:22:24;;;;;;;8.90;8.00;;;;;;;26.87;52.14;99337.56;8625761;22;20202;-79
2021/08/14 06:25:46;;;;;;;8.83;7.93;;;;;;;26.83;52.50;99329.03;8628493;23;20508;-80
2021/08/14 06:29:08;;;;;;;8.87;8.00;;;;;;;27.52;50.58;99337.44;8628074;23;20190;-81
2021/08/14 06:32:29;;;;;;;10.20;8.13;;;;;;;27.85;50.58;99332.75;8627101;22;20215;-80
2021/08/14 06:35:52;;;;;;;9.10;7.70;;;;;;;28.00;50.17;99338.00;8622099;23;20244;-80
2021/08/14 06:39:14;;;;;;;10.07;8.07;;;;;;;28.48;49.59;99337.38;8621678;23;20191;-80
2021/08/14 06:42:35;;;;;;;7.40;6.70;;;;;;;29.38;47.74;99323.44;8622340;22;20207;-79
2021/08/14 06:45:57;;;;;;;9.83;7.30;;;;;;;30.24;45.12;99325.69;8622616;23;20673;-79
2021/08/14 06:49:19;;;;;;;8.90;7.37;;;;;;;30.35;43.97;99325.06;8622206;23;20207;-79
2021/08/14 06:52:41;;;;;;;8.17;6.63;;;;;;;30.23;45.25;99324.03;8635529;22;20211;-79
2021/08/14 06:56:03;;;;;;;8.47;7.60;;;;;;;30.66;43.74;99325.88;8635948;22;20183;-79
2021/08/14 06:59:25;;;;;;;8.90;7.57;;;;;;;30.91;43.38;99318.72;8621697;23;20632;-79
2021/08/14 07:02:46;;;;;;;8.63;7.17;;;;;;;30.86;44.35;99322.50;8621682;22;20198;-81
2021/08/14 07:06:08;;;;;;;8.70;6.87;;;;;;;30.63;44.35;99304.22;8621034;23;20185;-80
2021/08/14 07:09:31;;;;;;;8.20;7.40;;;;;;;30.54;44.04;99324.81;8620327;23;20179;-79
2021/08/14 07:12:53;;;;;;;8.67;7.70;;;;;;;30.02;45.31;99323.72;8633684;22;20673;-79
2021/08/14 07:16:14;;;;;;;7.60;6.57;;;;;;;30.84;44.04;99321.97;8620683;23;20186;-79
2021/08/14 07:19:36;;;;;;;9.73;7.03;;;;;;;31.17;43.57;99319.56;8634309;23;20238;-79
2021/08/14 07:22:58;;;;;;;8.77;7.87;;;;;;;30.81;43.55;99316.22;8636419;22;20198;-80
2021/08/14 07:26:21;;;;;;;8.87;7.33;;;;;;;31.14;43.15;99315.44;8636772;23;20183;-79
2021/08/14 07:29:42;;;;;;;7.80;6.90;;;;;;;31.49;41.61;99317.13;8621399;23;20187;-79
2021/08/14 07:33:04;;;;;;;7.87;6.83;;;;;;;31.10;41.93;99319.22;8620658;22;20208;-82
2021/08/14 07:36:26;;;;;;;9.13;7.30;;;;;;;31.02;42.13;99317.25;8619987;23;20619;-80
2021/08/14 07:39:48;;;;;;;8.33;7.03;;;;;;;30.72;43.52;99309.84;8621155;23;20185;-80
2021/08/14 07:43:11;;;;;;;8.63;6.93;;;;;;;30.91;42.16;99290.88;8635370;22;20213;-79
2021/08/14 07:46:32;;;;;;;8.43;7.53;;;;;;;30.26;44.53;99304.72;8620988;23;20205;-81
2021/08/14 07:49:54;;;;;;;8.50;7.70;;;;;;;30.93;42.93;99296.91;8619770;23;20190;-80
2021/08/14 07:53:16;;;;;;;9.93;7.37;;;;;;;31.34;42.50;99303.72;8620680;22;20213;-79
2021/08/14 07:56:37;;;;;;;7.97;7.17;;;;;;;31.52;42.63;99298.91;8633464;22;20198;-79
2021/08/14 08:00:01;;;;;;;10.70;7.30;;;;;;;31.54;42.83;99303.03;8633269;23;20232;-80
2021/08/14 08:03:23;;;;;;;8.00;6.83;;;;;;;31.93;41.64;99283.28;8620113;22;20202;-81
2021/08/14 08:06:44;;;;;;;9.87;7.20;;;;;;;32.38;40.80;99276.06;8635709;23;20177;-79
2021/08/14 08:10:10;;;;;;;10.40;7.27;;;;;;;32.22;40.55;99288.94;8621644;23;20509;-80
2021/08/14 08:13:31;;;;;;;7.03;6.33;;;;;;;32.47;39.91;99279.66;8621375;22;20210;-79
2021/08/14 08:16:54;;;;;;;7.80;6.93;;;;;;;31.83;41.08;99289.22;8621231;23;20189;-79
2021/08/14 08:20:17;;;;;;;7.90;7.10;;;;;;;31.57;41.37;99260.56;8634797;22;20184;-80
2021/08/14 08:23:39;;;;;;;8.53;7.63;;;;;;;32.10;41.10;99286.03;8615268;23;20189;-82
2021/08/14 08:27:00;;;;;;;7.57;6.83;;;;;;;31.76;40.87;99282.50;8623742;23;20247;-80
2021/08/14 08:30:22;;;;;;;7.83;6.53;;;;;;;31.66;41.17;99275.28;8620057;22;20184;-80
2021/08/14 08:33:45;;;;;;;8.90;6.70;;;;;;;31.70;40.59;99281.84;8620084;23;20192;-79
2021/08/14 08:37:07;;;;;;;8.23;6.50;;;;;;;32.23;39.84;99273.00;8619836;23;20184;-80
2021/08/14 08:40:31;;;;;;;9.30;6.93;;;;;;;33.38;37.82;99274.91;8634276;22;20203;-79
2021/08/14 08:43:53;;;;;;;7.27;6.57;;;;;;;33.26;38.04;99277.63;8634382;23;20193;-81
2021/08/14 08:47:14;;;;;;;7.20;6.50;;;;;;;33.65;36.28;99265.94;8620314;23;20182;-80
2021/08/14 08:50:38;;;;;;;7.83;5.47;;;;;;;34.33;34.51;99264.38;8619479;22;20202;-79
2021/08/14 08:54:00;;;;;;;6.90;6.30;;;;;;;33.35;35.36;99230.88;8633511;23;20196;-81
2021/08/14 08:57:21;;;;;;;7.77;6.77;;;;;;;33.50;35.78;99266.56;8620775;23;20165;-80
2021/08/14 09:00:43;;;;;;;6.73;5.93;;;;;;;35.14;32.78;99263.00;8612711;22;20255;-82
2021/08/14 09:04:25;;;;;;;8.80;6.87;;;;;;;34.99;33.02;99263.75;8621147;23;20162;-81
2021/08/14 09:07:50;;;;;;;7.30;6.60;;;;;;;35.08;34.23;99258.00;8620658;23;20218;-78
2021/08/14 09:11:13;;;;;;;10.30;6.10;;;;;;;35.48;33.43;99256.81;8620864;22;20557;-82
2021/08/14 09:14:45;;;;;;;8.17;6.47;;;;;;;35.93;32.91;99265.75;8635435;22;20197;-80
2021/08/14 09:18:08;;;;;;;6.47;5.70;;;;;;;35.94;31.50;99252.50;8619993;23;20185;-80
2021/08/14 09:21:31;;;;;;;7.83;6.70;;;;;;;35.80;33.17;99255.78;8620337;22;20206;-82
2021/08/14 09:24:54;;;;;;;8.37;6.63;;;;;;;36.03;32.09;99241.94;8620724;23;20185;-81
2021/08/14 09:28:18;;;;;;;6.90;6.20;;;;;;;33.69;34.60;99230.53;8616325;23;20681;-78
2021/08/14 09:31:47;;;;;;;8.30;6.23;;;;;;;34.13;34.18;99260.47;8632222;22;20205;-79
2021/08/14 09:35:11;;;;;;;7.67;6.53;;;;;;;33.24;36.25;99256.75;8621181;23;20228;-79
2021/08/14 09:38:41;;;;;;;7.80;6.23;;;;;;;34.38;34.20;99244.53;8621053;23;20766;-79
2021/08/14 09:42:08;;;;;;;6.20;5.60;;;;;;;34.78;32.86;99259.47;8621393;22;20208;-79
2021/08/14 09:45:30;;;;;;;7.40;5.57;;;;;;;34.10;33.22;99241.59;8625539;23;20169;-78
2021/08/14 09:48:54;;;;;;;7.57;6.10;;;;;;;33.93;33.38;99236.19;8629475;23;20620;-80
2021/08/14 09:52:19;;;;;;;5.93;5.33;;;;;;;33.94;32.77;99237.00;8641851;22;20220;-80
2021/08/14 09:55:41;;;;;;;7.23;6.43;;;;;;;32.48;35.16;99231.00;8626845;23;20271;-79
2021/08/14 09:59:05;;;;;;;7.97;5.90;;;;;;;32.01;36.04;99225.84;8625106;23;20185;-80
2021/08/14 10:02:29;;;;;;;6.77;5.23;;;;;;;33.22;34.32;99217.97;8625760;22;20259;-79
2021/08/14 10:05:50;;;;;;;7.83;5.40;;;;;;;34.11;33.79;99201.22;8626860;23;20169;-80
2021/08/14 10:09:12;;;;;;;6.37;5.77;;;;;;;35.21;32.02;99203.50;8631687;23;20182;-80
2021/08/14 10:21:48;;;;;;;7.67;5.50;;;;;;;34.33;32.71;99189.59;8597714;22;20543;-81
2021/08/14 10:47:06;;;;;;;7.10;5.90;;;;;;;35.93;29.16;99139.41;8451342;23;20181;-79
2021/08/14 10:50:56;;;;;;;7.10;5.67;;;;;;;35.39;30.79;99171.19;8466927;23;20192;-78
2021/08/14 10:54:59;;;;;;;6.13;5.63;;;;;;;35.55;30.96;99160.84;8454960;23;20276;-79
2021/08/14 10:58:23;;;;;;;7.47;5.70;;;;;;;34.95;31.19;99163.91;8453753;23;20184;-79
2021/08/14 11:01:45;;;;;;;8.67;6.03;;;;;;;35.27;30.81;99155.28;8454418;23;20538;-78
2021/08/14 11:05:07;;;;;;;6.37;5.77;;;;;;;35.01;30.85;99156.88;8629986;23;20177;-79
2021/08/14 11:08:32;;;;;;;7.37;6.13;;;;;;;33.26;33.38;99151.81;8642603;23;20173;-78
2021/08/14 11:11:59;;;;;;;5.80;5.30;;;;;;;35.98;29.99;99139.13;8639976;22;20209;-79
2021/08/14 11:15:22;;;;;;;9.87;6.20;;;;;;;34.28;32.00;99147.00;8622904;23;20214;-81
2021/08/14 11:18:51;;;;;;;7.67;5.97;;;;;;;34.12;32.13;99123.63;8622165;23;20185;-78
2021/08/14 11:22:24;;;;;;;7.27;5.70;;;;;;;35.49;29.77;99132.22;8622068;22;20213;-78
2021/08/14 11:25:46;;;;;;;8.27;5.90;;;;;;;35.75;30.01;99132.53;8622480;23;20162;-79
2021/08/14 11:29:09;;;;;;;7.67;5.73;;;;;;;36.87;28.51;99123.97;8621648;23;20189;-79
2021/08/14 11:32:31;;;;;;;6.37;5.73;;;;;;;37.07;28.24;99125.59;8622631;22;20209;-79
2021/08/14 11:36:05;;;;;;;7.50;5.70;;;;;;;36.87;27.65;99123.97;8622934;23;20182;-78
2021/08/14 11:39:31;;;;;;;6.33;5.60;;;;;;;36.58;28.26;99096.44;8622845;23;20636;-78
2021/08/14 11:43:00;;;;;;;6.00;5.40;;;;;;;37.68;27.11;99106.72;8619434;22;20264;-79
2021/08/14 11:46:25;;;;;;;6.83;5.50;;;;;;;38.53;25.62;99109.69;8622344;23;20168;-78
2021/08/14 11:49:57;;;;;;;9.10;5.40;;;;;;;37.21;27.49;99114.66;8621973;23;20257;-78
2021/08/14 11:53:24;;;;;;;8.70;5.80;;;;;;;37.32;27.71;99103.59;8622963;22;20209;-78
2021/08/14 11:56:45;;;;;;;8.10;5.80;;;;;;;37.46;27.18;99093.41;8628499;23;20163;-78
2021/08/14 12:00:27;;;;;;;5.70;5.20;;;;;;;35.87;28.85;99093.16;8635315;23;20186;-80
2021/08/14 12:03:56;;;;;;;7.37;6.57;;;;;;;37.40;26.65;99096.91;8650531;23;20170;-81
2021/08/14 12:07:18;;;;;;;6.50;5.90;;;;;;;36.77;27.83;99098.44;8649758;23;20162;-81
2021/08/14 12:10:40;;;;;;;8.97;6.00;;;;;;;36.63;27.62;99090.56;8631484;22;20202;-80
2021/08/14 12:14:19;;;;;;;6.83;5.80;;;;;;;37.26;27.30;99076.97;8641190;23;20198;-79
2021/08/14 12:17:44;;;;;;;6.53;5.47;;;;;;;37.89;26.57;99080.91;8625634;23;20181;-79
2021/08/14 12:21:08;;;;;;;6.67;6.00;;;;;;;37.34;27.53;99073.91;8624462;22;20679;-79
2021/08/14 12:24:30;;;;;;;7.77;5.70;;;;;;;38.30;26.52;99071.47;8626405;23;20178;-79
2021/08/14 12:27:51;;;;;;;9.00;5.53;;;;;;;38.61;25.90;99063.50;8626731;23;20196;-79
2021/08/14 12:31:17;;;;;;;8.83;6.03;;;;;;;37.77;27.42;99062.22;8625316;22;20213;-79
2021/08/14 12:34:39;;;;;;;9.07;5.70;;;;;;;37.85;27.01;99057.50;8637382;23;20201;-79
2021/08/14 12:38:08;;;;;;;6.50;5.90;;;;;;;37.26;28.20;99049.63;8622951;23;20182;-80
2021/08/14 12:45:39;;;;;;;6.50;5.90;;;;;;;37.78;25.90;98956.84;8622573;22;20184;-80
2021/08/14 12:49:21;;;;;;;6.67;5.53;;;;;;;38.46;26.04;99049.59;8637190;23;20181;-79
2021/08/14 12:52:58;;;;;;;7.07;5.80;;;;;;;38.36;25.69;99036.13;8622423;22;20707;-79
2021/08/14 12:56:21;;;;;;;6.60;5.20;;;;;;;37.66;27.15;99037.91;8622275;23;20214;-78
2021/08/14 12:59:42;;;;;;;8.40;5.67;;;;;;;38.14;26.68;99023.78;8634648;23;20192;-79
2021/08/14 13:03:05;;;;;;;8.77;5.80;;;;;;;38.05;26.95;99033.69;8622641;22;20681;-78
2021/08/14 13:06:26;;;;;;;9.47;5.60;;;;;;;37.83;27.27;99035.34;8635549;23;20185;-79
2021/08/14 13:09:48;;;;;;;7.53;5.70;;;;;;;38.09;26.15;99032.56;8619881;23;20651;-78
2021/08/14 13:13:12;;;;;;;8.27;5.80;;;;;;;38.88;25.46;99019.13;8621248;22;20206;-79
2021/08/14 13:16:35;;;;;;;6.63;6.00;;;;;;;35.97;29.76;99030.81;8621188;23;20165;-78
2021/08/14 13:19:57;;;;;;;8.00;6.13;;;;;;;35.66;30.06;99022.41;8621734;23;20189;-78
2021/08/14 13:23:18;;;;;;;8.77;6.30;;;;;;;36.82;28.69;99005.38;8621916;22;20198;-78
2021/08/14 13:26:40;;;;;;;8.27;6.40;;;;;;;36.46;28.80;99023.50;8622364;23;20189;-79
2021/08/14 13:30:03;;;;;;;7.97;6.20;;;;;;;37.26;27.83;99015.88;8621974;23;20189;-79
2021/08/14 13:33:25;;;;;;;7.97;6.07;;;;;;;37.37;27.87;99011.25;8622576;22;20209;-79
2021/08/14 13:36:46;;;;;;;8.73;6.27;;;;;;;37.88;26.31;98991.97;8636059;23;20169;-79
2021/08/14 13:40:10;;;;;;;7.33;5.63;;;;;;;38.00;26.58;99014.31;8621885;23;20209;-80
2021/08/14 13:43:33;;;;;;;6.00;5.50;;;;;;;38.08;26.86;99007.59;8621345;22;20205;-79
2021/08/14 13:46:56;;;;;;;9.77;6.17;;;;;;;38.18;27.13;99007.75;8623646;23;20192;-80
2021/08/14 13:50:17;;;;;;;7.70;6.33;;;;;;;37.72;27.25;99011.06;8623276;22;20189;-79
2021/08/14 13:53:39;;;;;;;7.10;5.70;;;;;;;37.22;27.53;99009.41;8622873;23;20531;-79
2021/08/14 13:57:00;;;;;;;7.33;6.37;;;;;;;36.75;28.38;99000.44;8622600;23;20185;-79
2021/08/14 14:00:22;;;;;;;8.80;6.07;;;;;;;36.31;29.60;98996.28;8629947;22;20173;-79
2021/08/14 14:03:45;;;;;;;7.47;5.67;;;;;;;36.24;29.98;98998.13;8635629;23;20612;-79
2021/08/14 14:07:07;;;;;;;7.03;6.30;;;;;;;36.20;29.79;98998.06;8622749;23;20177;-80
2021/08/14 14:10:28;;;;;;;6.90;6.17;;;;;;;36.05;29.77;98996.13;8621707;22;20188;-79
2021/08/14 14:13:51;;;;;;;7.57;6.47;;;;;;;36.14;29.86;98985.47;8622795;23;20539;-79
2021/08/14 14:17:13;;;;;;;10.03;6.20;;;;;;;36.20;30.04;98984.03;8622569;23;20784;-79
2021/08/14 14:20:38;;;;;;;6.17;5.60;;;;;;;35.31;31.30;98998.31;8636406;22;20251;-80
2021/08/14 14:23:59;;;;;;;9.70;6.20;;;;;;;36.07;30.29;98984.53;8625230;23;20178;-78
2021/08/14 14:27:21;;;;;;;8.37;5.77;;;;;;;36.12;30.39;98965.38;8624608;23;20185;-79
2021/08/14 14:30:43;;;;;;;6.73;6.03;;;;;;;36.30;29.91;98965.75;8627322;22;20202;-79
2021/08/14 14:34:05;;;;;;;8.20;6.00;;;;;;;35.62;31.29;98990.69;8626915;23;20232;-79
2021/08/14 14:37:28;;;;;;;7.50;6.00;;;;;;;35.12;32.44;98987.78;8628275;23;20182;-79
2021/08/14 14:40:50;;;;;;;7.13;5.93;;;;;;;35.87;31.40;98975.25;8625976;22;20209;-78
2021/08/14 14:44:12;;;;;;;6.77;5.97;;;;;;;36.06;30.49;98974.44;8626531;23;20193;-79
2021/08/14 14:47:33;;;;;;;7.20;6.23;;;;;;;36.06;30.69;98971.63;8626002;23;20182;-79
2021/08/14 14:50:55;;;;;;;7.13;6.43;;;;;;;35.57;31.40;98962.91;8638307;22;20201;-80
2021/08/14 14:54:18;;;;;;;8.60;5.67;;;;;;;35.47;31.95;98965.44;8625814;23;20213;-80
2021/08/14 14:57:40;;;;;;;9.60;6.40;;;;;;;35.93;31.02;98959.75;8641959;23;20185;-80
2021/08/14 15:01:01;;;;;;;7.37;6.17;;;;;;;36.75;30.63;98955.47;8623336;22;20207;-80
2021/08/14 15:04:23;;;;;;;8.10;6.37;;;;;;;35.59;31.80;98960.53;8622685;23;20256;-81
2021/08/14 15:07:44;;;;;;;9.73;6.63;;;;;;;34.89;31.87;98941.94;8622567;23;20651;-80
2021/08/14 15:11:10;;;;;;;6.30;5.70;;;;;;;35.09;32.22;98954.88;8619429;22;20205;-80
2021/08/14 15:14:31;;;;;;;8.27;6.00;;;;;;;35.68;30.62;98949.94;8621602;23;20182;-80
2021/08/14 15:17:53;;;;;;;7.63;6.33;;;;;;;34.74;32.10;98958.69;8622842;23;20601;-80
2021/08/14 15:21:14;;;;;;;7.10;6.40;;;;;;;34.77;32.29;98950.41;8622345;22;20197;-80
2021/08/14 15:24:36;;;;;;;7.23;6.17;;;;;;;34.80;32.50;98946.91;8632087;22;20174;-80
2021/08/14 15:28:00;;;;;;;7.97;6.23;;;;;;;35.44;31.33;98949.34;8628813;23;20154;-81
2021/08/14 15:31:21;;;;;;;8.83;6.63;;;;;;;34.87;31.43;98943.47;8611247;22;20205;-88
2021/08/14 15:34:43;;;;;;;6.73;6.03;;;;;;;34.91;32.15;98942.38;8622414;23;20209;-87
2021/08/14 15:38:04;;;;;;;6.37;5.70;;;;;;;35.89;30.75;98930.78;8620370;23;20178;-86
2021/08/14 15:41:26;;;;;;;6.47;5.57;;;;;;;36.20;30.46;98930.66;8614807;23;20202;-87
2021/08/14 15:44:49;;;;;;;7.97;6.17;;;;;;;35.75;30.34;98932.47;8614168;23;20181;-87
2021/08/14 15:48:10;;;;;;;14.73;6.33;;;;;;;35.56;31.40;98927.59;8613414;23;20185;-87
2021/08/14 15:51:33;;;;;;;7.37;6.17;;;;;;;35.76;31.18;98937.72;8615503;23;20501;-87
2021/08/14 15:54:55;;;;;;;6.43;5.60;;;;;;;35.11;31.93;98938.50;8615353;23;20198;-87
2021/08/14 15:58:17;;;;;;;7.97;6.77;;;;;;;35.22;31.74;98931.16;8627730;23;20185;-87
2021/08/14 16:01:40;;;;;;;7.37;6.67;;;;;;;35.57;31.18;98925.59;8628673;23;20194;-87
2021/08/14 16:05:02;;;;;;;8.70;6.90;;;;;;;35.59;31.29;98924.06;8629556;23;20173;-86
2021/08/14 16:08:24;;;;;;;7.17;6.30;;;;;;;35.15;31.71;98910.53;8643556;23;20178;-87
2021/08/14 16:11:46;;;;;;;8.70;6.87;;;;;;;35.55;31.13;98914.75;8615479;23;20210;-87
2021/08/14 16:15:11;;;;;;;7.73;5.93;;;;;;;35.24;31.91;98869.94;8614817;23;20220;-87
2021/08/14 16:18:34;;;;;;;7.93;6.20;;;;;;;35.29;31.65;98916.50;8627676;23;20173;-87
2021/08/14 16:21:55;;;;;;;7.07;6.03;;;;;;;35.41;31.28;98906.00;8613777;23;20206;-87
2021/08/14 16:25:17;;;;;;;6.73;6.10;;;;;;;35.38;31.73;98917.94;8614099;23;20178;-86
2021/08/14 16:28:39;;;;;;;7.60;6.53;;;;;;;35.17;32.57;98917.41;8613854;23;20178;-86
2021/08/14 16:32:02;;;;;;;7.63;6.17;;;;;;;35.16;32.48;98913.00;8626081;23;20552;-86
2021/08/14 16:35:25;;;;;;;8.03;6.20;;;;;;;35.08;32.54;98919.59;8626528;23;20652;-86
2021/08/14 16:38:47;;;;;;;6.83;5.83;;;;;;;35.17;32.41;98910.97;8626110;23;20174;-87
2021/08/14 16:42:10;;;;;;;6.77;6.17;;;;;;;34.34;33.34;98914.00;8627844;23;20201;-87
2021/08/14 16:45:31;;;;;;;6.67;6.00;;;;;;;34.42;33.48;98909.41;8613664;23;20178;-87
2021/08/14 16:48:53;;;;;;;7.40;6.67;;;;;;;34.41;33.83;98910.56;8626574;23;20185;-87
2021/08/14 16:52:17;;;;;;;7.67;6.27;;;;;;;34.01;34.32;98912.59;8627603;23;20193;-87
2021/08/14 16:55:39;;;;;;;6.83;5.93;;;;;;;34.56;33.83;98898.59;8613786;23;20198;-87
2021/08/14 16:59:00;;;;;;;7.77;6.30;;;;;;;33.82;34.70;98904.03;8615542;23;20192;-87
2021/08/14 17:02:22;;;;;;;6.80;6.10;;;;;;;34.28;33.94;98897.81;8613992;23;20206;-85
2021/08/14 17:05:43;;;;;;;8.27;6.47;;;;;;;33.98;34.35;98857.34;8616486;23;20648;-88
2021/08/14 17:09:06;;;;;;;7.23;6.50;;;;;;;34.18;34.33;98895.47;8628924;23;20174;-87
2021/08/14 17:12:28;;;;;;;6.57;5.67;;;;;;;33.73;34.94;98894.94;8615146;23;20202;-87
2021/08/14 17:15:52;;;;;;;8.20;6.47;;;;;;;34.41;34.42;98888.16;8616378;23;20380;-87
2021/08/14 17:19:14;;;;;;;6.73;6.03;;;;;;;34.48;34.36;98891.97;8629216;23;20177;-87
2021/08/14 17:22:39;;;;;;;7.07;6.17;;;;;;;34.38;34.38;98886.88;8629045;23;20221;-88
2021/08/14 17:26:03;;;;;;;9.23;6.13;;;;;;;34.34;34.55;98902.78;8629804;23;20177;-87
2021/08/14 17:29:25;;;;;;;8.73;5.73;;;;;;;34.44;33.85;98893.84;8628950;23;20173;-87
2021/08/14 17:32:50;;;;;;;8.03;6.07;;;;;;;34.39;34.72;98880.13;8616792;23;20209;-87
2021/08/14 17:36:12;;;;;;;7.00;6.30;;;;;;;33.57;35.55;98833.34;8624800;23;20520;-87
2021/08/14 17:39:34;;;;;;;7.27;6.37;;;;;;;33.54;35.80;98887.19;8613352;23;20168;-87
2021/08/14 17:42:57;;;;;;;8.83;6.23;;;;;;;34.18;34.70;98887.91;8627259;23;20207;-86
2021/08/14 17:46:20;;;;;;;6.30;5.80;;;;;;;33.70;34.98;98860.09;8614087;23;20632;-88
2021/08/14 17:49:41;;;;;;;8.80;6.13;;;;;;;34.04;34.35;98901.50;8613152;23;20182;-87
2021/08/14 17:53:03;;;;;;;7.47;6.23;;;;;;;33.68;35.77;98898.81;8615082;23;20201;-86
2021/08/14 17:56:25;;;;;;;8.97;6.73;;;;;;;33.98;35.32;98891.75;8620411;23;20183;-86
2021/08/14 18:04:08;;;;;;;10.27;6.40;;;;;;;33.52;36.43;98886.72;8650013;22;20220;-88
2021/08/14 18:07:36;;;;;;;9.23;7.07;;;;;;;33.61;36.56;98864.22;8657587;22;20195;-89
2021/08/14 18:10:57;;;;;;;9.17;6.20;;;;;;;33.14;37.17;98883.47;8671368;22;20171;-90
2021/08/14 18:14:20;;;;;;;7.60;6.37;;;;;;;33.14;37.45;98880.69;8661226;22;20631;-89
2021/08/14 18:17:44;;;;;;;37.67;31.53;;;;;;;33.29;39.38;98887.56;8666462;22;20187;-89
2021/08/14 18:21:08;;;;;;;21.70;18.33;;;;;;;33.17;39.69;98885.56;8682226;22;20173;-88
2021/08/14 18:25:08;;;;;;;11.27;10.17;;;;;;;32.41;42.10;98869.78;8682637;22;20228;-87
2021/08/14 18:28:30;;;;;;;11.07;9.90;;;;;;;32.06;43.29;98891.63;8665705;22;20179;-90
2021/08/14 18:31:52;;;;;;;10.70;9.10;;;;;;;32.09;43.31;98888.16;8678635;22;20206;-89
2021/08/14 18:35:14;;;;;;;9.67;8.67;;;;;;;31.98;43.66;98898.13;8665792;22;20200;-89
2021/08/14 18:38:38;;;;;;;12.17;9.90;;;;;;;31.76;44.46;98901.25;8679608;22;20181;-89
2021/08/14 18:42:09;;;;;;;11.97;10.27;;;;;;;30.93;46.52;98882.75;8682564;22;20195;-87
2021/08/14 18:45:31;;;;;;;10.57;9.40;;;;;;;31.30;46.15;98904.19;8666204;22;20163;-87
2021/08/14 18:48:53;;;;;;;13.20;10.40;;;;;;;31.23;46.50;98914.22;8672504;22;20177;-85
2021/08/14 18:52:14;;;;;;;11.97;10.57;;;;;;;31.00;46.77;98905.31;8658171;22;20251;-86
2021/08/14 18:55:37;;;;;;;10.93;9.90;;;;;;;30.81;47.54;98909.66;8658474;22;20199;-88
2021/08/14 18:58:59;;;;;;;11.63;10.40;;;;;;;30.50;48.13;98882.09;8657598;22;20179;-86
2021/08/14 19:02:21;;;;;;;12.20;10.13;;;;;;;30.65;48.16;98905.78;8657792;22;20801;-87
2021/08/14 19:05:42;;;;;;;12.63;9.73;;;;;;;29.92;50.66;98900.50;8658144;22;20191;-84
2021/08/14 19:09:04;;;;;;;12.20;10.30;;;;;;;29.49;51.79;98902.44;8657603;22;20182;-86
2021/08/14 19:12:27;;;;;;;11.03;9.87;;;;;;;29.93;50.55;98911.31;8658020;22;20263;-87
2021/08/14 19:15:49;;;;;;;11.10;10.00;;;;;;;29.87;50.50;98920.97;8660686;22;20208;-89
2021/08/14 19:19:11;;;;;;;13.63;10.73;;;;;;;29.30;51.99;98924.16;8678041;22;20495;-86
2021/08/14 19:22:35;;;;;;;15.63;10.33;;;;;;;28.49;53.80;98874.84;8671807;22;20204;-88
2021/08/14 19:25:56;;;;;;;12.30;9.33;;;;;;;28.51;54.07;98892.00;8681969;22;20164;-89
2021/08/14 19:29:19;;;;;;;12.90;9.93;;;;;;;29.11;52.60;98906.94;8683921;22;20270;-86
2021/08/14 19:32:44;;;;;;;11.30;10.13;;;;;;;29.27;51.78;98920.06;8672157;22;20201;-87
2021/08/14 19:36:06;;;;;;;11.57;9.17;;;;;;;29.24;51.88;98904.03;8673105;22;20208;-88
2021/08/14 19:39:28;;;;;;;10.33;9.17;;;;;;;28.81;52.33;98860.59;8675449;22;20648;-88
2021/08/14 19:42:49;;;;;;;11.20;9.17;;;;;;;29.44;51.60;98913.72;8664560;22;20219;-87
2021/08/14 19:46:12;;;;;;;11.57;9.50;;;;;;;29.13;52.46;98915.78;8676895;22;20175;-87
2021/08/14 19:49:37;;;;;;;11.97;10.07;;;;;;;28.94;52.89;98924.34;8664851;22;20181;-88
2021/08/14 19:52:59;;;;;;;10.57;8.60;;;;;;;29.15;51.98;98922.66;8668997;22;20207;-88
2021/08/14 19:56:20;;;;;;;9.60;8.60;;;;;;;29.17;51.25;98922.31;8684169;22;20202;-88
2021/08/14 19:59:42;;;;;;;9.33;8.43;;;;;;;28.85;51.69;98898.50;8666686;22;20186;-87
2021/08/14 20:03:06;;;;;;;8.80;8.00;;;;;;;28.84;51.18;98926.59;8664410;22;20207;-87